sensor_id;sensor_type;location;lat;lon;timestamp;P1;durP1;ratioP1;P2;durP2;ratioP2
5416;SDS011;2731;50.754;12.990;2023-08-24T00:02:24;6.60;;;4.78;;
5416;SDS011;2731;50.754;12.990;2023-08-24T00:04:53;4.25;;;3.85;;
5416;SDS011;2731;50.754;12.990;2023-08-24T00:07:22;4.57;;;3.45;;
5416;SDS011;2731;50.754;12.990;2023-08-24T00:09:52;6.20;;;4.00;;
5416;SDS011;2731;50.754;12.990;2023-08-24T00:12:18;5.85;;;4.00;;
5416;SDS011;2731;50.754;12.990;2023-08-24T00:14:45;12.50;;;4.05;;
5416;SDS011;2731;50.754;12.990;2023-08-24T00:17:14;5.80;;;4.38;;
5416;SDS011;2731;50.754;12.990;2023-08-24T00:19:44;8.90;;;3.92;;
5416;SDS011;2731;50.754;12.990;2023-08-24T00:22:13;6.90;;;4.22;;
5416;SDS011;2731;50.754;12.990;2023-08-24T00:24:43;5.93;;;4.43;;
5416;SDS011;2731;50.754;12.990;2023-08-24T00:27:11;6.45;;;4.20;;
5416;SDS011;2731;50.754;12.990;2023-08-24T00:29:40;6.00;;;4.43;;
5416;SDS011;2731;50.754;12.990;2023-08-24T00:32:08;5.10;;;4.18;;
5416;SDS011;2731;50.754;12.990;2023-08-24T00:34:36;5.43;;;4.53;;
5416;SDS011;2731;50.754;12.990;2023-08-24T00:37:05;5.13;;;4.00;;
5416;SDS011;2731;50.754;12.990;2023-08-24T00:39:35;9.13;;;4.28;;
5416;SDS011;2731;50.754;12.990;2023-08-24T00:42:02;8.70;;;4.22;;
5416;SDS011;2731;50.754;12.990;2023-08-24T00:44:31;5.20;;;3.85;;
5416;SDS011;2731;50.754;12.990;2023-08-24T00:47:00;5.10;;;4.35;;
5416;SDS011;2731;50.754;12.990;2023-08-24T00:49:28;6.10;;;4.20;;
5416;SDS011;2731;50.754;12.990;2023-08-24T00:51:56;6.40;;;4.63;;
5416;SDS011;2731;50.754;12.990;2023-08-24T00:54:25;5.30;;;4.72;;
5416;SDS011;2731;50.754;12.990;2023-08-24T00:56:54;5.28;;;3.75;;
5416;SDS011;2731;50.754;12.990;2023-08-24T00:59:20;4.93;;;4.25;;
5416;SDS011;2731;50.754;12.990;2023-08-24T01:01:47;5.75;;;4.22;;
5416;SDS011;2731;50.754;12.990;2023-08-24T01:04:17;6.40;;;3.65;;
5416;SDS011;2731;50.754;12.990;2023-08-24T01:06:44;8.38;;;4.68;;
5416;SDS011;2731;50.754;12.990;2023-08-24T01:09:13;5.43;;;4.85;;
5416;SDS011;2731;50.754;12.990;2023-08-24T01:14:51;6.85;;;4.15;;
5416;SDS011;2731;50.754;12.990;2023-08-24T01:17:23;6.35;;;4.38;;
5416;SDS011;2731;50.754;12.990;2023-08-24T01:19:55;4.85;;;4.45;;
5416;SDS011;2731;50.754;12.990;2023-08-24T01:22:33;5.70;;;5.10;;
5416;SDS011;2731;50.754;12.990;2023-08-24T01:25:17;4.75;;;4.25;;
5416;SDS011;2731;50.754;12.990;2023-08-24T01:27:47;6.22;;;3.97;;
5416;SDS011;2731;50.754;12.990;2023-08-24T01:30:17;7.68;;;5.05;;
5416;SDS011;2731;50.754;12.990;2023-08-24T01:32:48;6.57;;;4.72;;
5416;SDS011;2731;50.754;12.990;2023-08-24T01:35:15;6.63;;;4.82;;
5416;SDS011;2731;50.754;12.990;2023-08-24T01:37:41;6.57;;;4.43;;
5416;SDS011;2731;50.754;12.990;2023-08-24T01:40:20;6.22;;;4.60;;
5416;SDS011;2731;50.754;12.990;2023-08-24T01:42:49;6.75;;;4.47;;
5416;SDS011;2731;50.754;12.990;2023-08-24T01:45:24;9.75;;;5.00;;
5416;SDS011;2731;50.754;12.990;2023-08-24T01:47:52;5.40;;;4.60;;
5416;SDS011;2731;50.754;12.990;2023-08-24T01:50:21;5.45;;;4.10;;
5416;SDS011;2731;50.754;12.990;2023-08-24T01:52:50;5.97;;;4.70;;
5416;SDS011;2731;50.754;12.990;2023-08-24T01:55:20;6.20;;;3.88;;
5416;SDS011;2731;50.754;12.990;2023-08-24T01:57:48;5.60;;;3.80;;
5416;SDS011;2731;50.754;12.990;2023-08-24T02:00:14;8.75;;;4.03;;
5416;SDS011;2731;50.754;12.990;2023-08-24T02:02:43;6.50;;;4.35;;
5416;SDS011;2731;50.754;12.990;2023-08-24T02:05:09;6.50;;;3.78;;
5416;SDS011;2731;50.754;12.990;2023-08-24T02:07:39;7.45;;;4.45;;
5416;SDS011;2731;50.754;12.990;2023-08-24T02:10:08;8.65;;;4.78;;
5416;SDS011;2731;50.754;12.990;2023-08-24T02:12:35;8.05;;;4.35;;
5416;SDS011;2731;50.754;12.990;2023-08-24T02:15:04;5.22;;;4.38;;
5416;SDS011;2731;50.754;12.990;2023-08-24T02:17:34;4.40;;;4.00;;
5416;SDS011;2731;50.754;12.990;2023-08-24T02:20:05;5.90;;;4.60;;
5416;SDS011;2731;50.754;12.990;2023-08-24T02:22:36;5.85;;;4.03;;
5416;SDS011;2731;50.754;12.990;2023-08-24T02:25:04;7.70;;;4.60;;
5416;SDS011;2731;50.754;12.990;2023-08-24T02:27:32;5.18;;;4.68;;
5416;SDS011;2731;50.754;12.990;2023-08-24T02:30:00;4.43;;;4.03;;
5416;SDS011;2731;50.754;12.990;2023-08-24T02:32:27;4.50;;;4.10;;
5416;SDS011;2731;50.754;12.990;2023-08-24T02:34:54;5.45;;;4.10;;
5416;SDS011;2731;50.754;12.990;2023-08-24T02:37:20;4.78;;;4.30;;
5416;SDS011;2731;50.754;12.990;2023-08-24T02:39:50;5.32;;;4.00;;
5416;SDS011;2731;50.754;12.990;2023-08-24T02:42:17;5.15;;;4.30;;
5416;SDS011;2731;50.754;12.990;2023-08-24T02:44:44;6.70;;;4.53;;
5416;SDS011;2731;50.754;12.990;2023-08-24T02:47:11;4.72;;;4.22;;
5416;SDS011;2731;50.754;12.990;2023-08-24T02:49:42;7.35;;;4.68;;
5416;SDS011;2731;50.754;12.990;2023-08-24T02:52:08;9.70;;;4.93;;
5416;SDS011;2731;50.754;12.990;2023-08-24T02:54:34;5.53;;;4.93;;
5416;SDS011;2731;50.754;12.990;2023-08-24T02:57:03;5.25;;;4.63;;
5416;SDS011;2731;50.754;12.990;2023-08-24T02:59:31;6.40;;;4.35;;
5416;SDS011;2731;50.754;12.990;2023-08-24T03:01:59;11.32;;;4.60;;
5416;SDS011;2731;50.754;12.990;2023-08-24T03:04:26;6.20;;;4.88;;
5416;SDS011;2731;50.754;12.990;2023-08-24T03:06:53;7.47;;;4.28;;
5416;SDS011;2731;50.754;12.990;2023-08-24T03:09:23;8.20;;;5.00;;
5416;SDS011;2731;50.754;12.990;2023-08-24T03:11:50;6.93;;;4.35;;
5416;SDS011;2731;50.754;12.990;2023-08-24T03:14:17;6.38;;;4.75;;
5416;SDS011;2731;50.754;12.990;2023-08-24T03:16:45;6.47;;;4.82;;
5416;SDS011;2731;50.754;12.990;2023-08-24T03:19:12;10.27;;;4.85;;
5416;SDS011;2731;50.754;12.990;2023-08-24T03:21:40;7.40;;;4.53;;
5416;SDS011;2731;50.754;12.990;2023-08-24T03:24:09;7.72;;;4.82;;
5416;SDS011;2731;50.754;12.990;2023-08-24T03:26:42;6.65;;;4.50;;
5416;SDS011;2731;50.754;12.990;2023-08-24T03:29:11;7.63;;;5.13;;
5416;SDS011;2731;50.754;12.990;2023-08-24T03:31:39;7.13;;;4.45;;
5416;SDS011;2731;50.754;12.990;2023-08-24T03:34:05;5.07;;;4.35;;
5416;SDS011;2731;50.754;12.990;2023-08-24T03:36:34;9.27;;;5.03;;
5416;SDS011;2731;50.754;12.990;2023-08-24T03:39:03;8.77;;;5.10;;
5416;SDS011;2731;50.754;12.990;2023-08-24T03:41:37;8.43;;;4.95;;
5416;SDS011;2731;50.754;12.990;2023-08-24T03:44:06;17.27;;;4.68;;
5416;SDS011;2731;50.754;12.990;2023-08-24T03:46:32;6.43;;;4.93;;
5416;SDS011;2731;50.754;12.990;2023-08-24T03:49:04;6.53;;;4.55;;
5416;SDS011;2731;50.754;12.990;2023-08-24T03:51:31;5.07;;;4.47;;
5416;SDS011;2731;50.754;12.990;2023-08-24T03:53:58;4.88;;;4.35;;
5416;SDS011;2731;50.754;12.990;2023-08-24T03:56:27;10.40;;;4.68;;
5416;SDS011;2731;50.754;12.990;2023-08-24T03:58:55;7.63;;;4.80;;
5416;SDS011;2731;50.754;12.990;2023-08-24T04:01:24;7.80;;;4.35;;
5416;SDS011;2731;50.754;12.990;2023-08-24T04:03:51;4.97;;;4.38;;
5416;SDS011;2731;50.754;12.990;2023-08-24T04:06:19;6.15;;;4.28;;
5416;SDS011;2731;50.754;12.990;2023-08-24T04:08:46;5.55;;;5.03;;
5416;SDS011;2731;50.754;12.990;2023-08-24T04:11:13;6.68;;;4.82;;
5416;SDS011;2731;50.754;12.990;2023-08-24T04:13:40;5.35;;;4.70;;
5416;SDS011;2731;50.754;12.990;2023-08-24T04:16:08;8.50;;;5.57;;
5416;SDS011;2731;50.754;12.990;2023-08-24T04:18:39;9.32;;;4.85;;
5416;SDS011;2731;50.754;12.990;2023-08-24T04:21:08;7.00;;;4.95;;
5416;SDS011;2731;50.754;12.990;2023-08-24T04:23:35;8.55;;;4.25;;
5416;SDS011;2731;50.754;12.990;2023-08-24T04:26:02;7.30;;;4.70;;
5416;SDS011;2731;50.754;12.990;2023-08-24T04:28:31;7.50;;;5.18;;
5416;SDS011;2731;50.754;12.990;2023-08-24T04:30:58;6.07;;;4.20;;
5416;SDS011;2731;50.754;12.990;2023-08-24T04:33:27;7.68;;;4.90;;
5416;SDS011;2731;50.754;12.990;2023-08-24T04:35:59;8.93;;;5.05;;
5416;SDS011;2731;50.754;12.990;2023-08-24T04:38:26;5.80;;;4.90;;
5416;SDS011;2731;50.754;12.990;2023-08-24T04:40:55;7.32;;;4.75;;
5416;SDS011;2731;50.754;12.990;2023-08-24T04:43:23;7.20;;;4.93;;
5416;SDS011;2731;50.754;12.990;2023-08-24T04:45:54;7.47;;;5.38;;
5416;SDS011;2731;50.754;12.990;2023-08-24T04:50:48;8.75;;;4.40;;
5416;SDS011;2731;50.754;12.990;2023-08-24T04:53:20;7.30;;;5.53;;
5416;SDS011;2731;50.754;12.990;2023-08-24T04:55:48;6.65;;;4.93;;
5416;SDS011;2731;50.754;12.990;2023-08-24T04:58:15;8.25;;;4.80;;
5416;SDS011;2731;50.754;12.990;2023-08-24T05:00:44;5.55;;;4.10;;
5416;SDS011;2731;50.754;12.990;2023-08-24T05:03:11;6.38;;;4.93;;
5416;SDS011;2731;50.754;12.990;2023-08-24T05:05:40;5.18;;;4.65;;
5416;SDS011;2731;50.754;12.990;2023-08-24T05:08:08;5.97;;;5.35;;
5416;SDS011;2731;50.754;12.990;2023-08-24T05:10:42;5.13;;;4.63;;
5416;SDS011;2731;50.754;12.990;2023-08-24T05:13:09;6.55;;;5.43;;
5416;SDS011;2731;50.754;12.990;2023-08-24T05:15:37;6.03;;;4.38;;
5416;SDS011;2731;50.754;12.990;2023-08-24T05:18:04;6.32;;;5.45;;
5416;SDS011;2731;50.754;12.990;2023-08-24T05:20:32;4.85;;;4.38;;
5416;SDS011;2731;50.754;12.990;2023-08-24T05:22:58;6.63;;;4.88;;
5416;SDS011;2731;50.754;12.990;2023-08-24T05:25:25;6.07;;;5.03;;
5416;SDS011;2731;50.754;12.990;2023-08-24T05:27:53;5.30;;;4.53;;
5416;SDS011;2731;50.754;12.990;2023-08-24T05:30:19;5.88;;;4.60;;
5416;SDS011;2731;50.754;12.990;2023-08-24T05:32:46;4.93;;;4.38;;
5416;SDS011;2731;50.754;12.990;2023-08-24T05:35:16;6.35;;;4.45;;
5416;SDS011;2731;50.754;12.990;2023-08-24T05:37:43;6.35;;;4.97;;
5416;SDS011;2731;50.754;12.990;2023-08-24T05:40:12;5.28;;;4.78;;
5416;SDS011;2731;50.754;12.990;2023-08-24T05:42:40;5.25;;;4.68;;
5416;SDS011;2731;50.754;12.990;2023-08-24T05:45:11;5.22;;;4.28;;
5416;SDS011;2731;50.754;12.990;2023-08-24T05:47:40;6.30;;;5.03;;
5416;SDS011;2731;50.754;12.990;2023-08-24T05:50:07;5.85;;;4.53;;
5416;SDS011;2731;50.754;12.990;2023-08-24T05:52:40;6.03;;;4.70;;
5416;SDS011;2731;50.754;12.990;2023-08-24T05:55:08;6.60;;;4.60;;
5416;SDS011;2731;50.754;12.990;2023-08-24T05:57:37;6.25;;;4.60;;
5416;SDS011;2731;50.754;12.990;2023-08-24T06:00:05;7.95;;;5.30;;
5416;SDS011;2731;50.754;12.990;2023-08-24T06:02:36;5.95;;;4.32;;
5416;SDS011;2731;50.754;12.990;2023-08-24T06:05:05;5.00;;;4.45;;
5416;SDS011;2731;50.754;12.990;2023-08-24T06:07:33;6.65;;;5.15;;
5416;SDS011;2731;50.754;12.990;2023-08-24T06:10:02;5.10;;;4.60;;
5416;SDS011;2731;50.754;12.990;2023-08-24T06:12:32;6.03;;;4.22;;
5416;SDS011;2731;50.754;12.990;2023-08-24T06:15:00;7.40;;;4.60;;
5416;SDS011;2731;50.754;12.990;2023-08-24T06:17:28;6.22;;;4.43;;
5416;SDS011;2731;50.754;12.990;2023-08-24T06:19:57;5.90;;;3.95;;
5416;SDS011;2731;50.754;12.990;2023-08-24T06:22:27;5.70;;;4.70;;
5416;SDS011;2731;50.754;12.990;2023-08-24T06:24:55;5.68;;;4.10;;
5416;SDS011;2731;50.754;12.990;2023-08-24T06:27:26;6.85;;;4.55;;
5416;SDS011;2731;50.754;12.990;2023-08-24T06:29:55;5.57;;;3.88;;
5416;SDS011;2731;50.754;12.990;2023-08-24T06:32:22;5.25;;;4.40;;
5416;SDS011;2731;50.754;12.990;2023-08-24T06:34:52;5.47;;;4.38;;
5416;SDS011;2731;50.754;12.990;2023-08-24T06:37:20;5.38;;;4.40;;
5416;SDS011;2731;50.754;12.990;2023-08-24T06:39:51;10.52;;;4.20;;
5416;SDS011;2731;50.754;12.990;2023-08-24T06:42:17;5.20;;;4.05;;
5416;SDS011;2731;50.754;12.990;2023-08-24T06:44:43;6.30;;;4.10;;
5416;SDS011;2731;50.754;12.990;2023-08-24T06:47:09;4.68;;;4.03;;
5416;SDS011;2731;50.754;12.990;2023-08-24T06:49:36;9.75;;;4.97;;
5416;SDS011;2731;50.754;12.990;2023-08-24T06:52:05;7.03;;;3.88;;
5416;SDS011;2731;50.754;12.990;2023-08-24T06:54:32;5.03;;;4.03;;
5416;SDS011;2731;50.754;12.990;2023-08-24T06:57:00;8.25;;;4.15;;
5416;SDS011;2731;50.754;12.990;2023-08-24T06:59:28;6.50;;;4.20;;
5416;SDS011;2731;50.754;12.990;2023-08-24T07:01:56;5.70;;;4.07;;
5416;SDS011;2731;50.754;12.990;2023-08-24T07:04:25;4.07;;;3.65;;
5416;SDS011;2731;50.754;12.990;2023-08-24T07:06:53;5.78;;;3.67;;
5416;SDS011;2731;50.754;12.990;2023-08-24T07:09:20;9.77;;;4.40;;
5416;SDS011;2731;50.754;12.990;2023-08-24T07:11:49;4.63;;;3.85;;
5416;SDS011;2731;50.754;12.990;2023-08-24T07:14:16;5.22;;;3.60;;
5416;SDS011;2731;50.754;12.990;2023-08-24T07:16:45;8.38;;;3.70;;
5416;SDS011;2731;50.754;12.990;2023-08-24T07:19:14;5.57;;;3.60;;
5416;SDS011;2731;50.754;12.990;2023-08-24T07:21:43;3.90;;;3.30;;
5416;SDS011;2731;50.754;12.990;2023-08-24T07:24:10;3.88;;;3.35;;
5416;SDS011;2731;50.754;12.990;2023-08-24T07:26:37;5.00;;;3.63;;
5416;SDS011;2731;50.754;12.990;2023-08-24T07:29:03;4.25;;;3.78;;
5416;SDS011;2731;50.754;12.990;2023-08-24T07:31:34;5.07;;;3.38;;
5416;SDS011;2731;50.754;12.990;2023-08-24T07:34:02;4.75;;;3.80;;
5416;SDS011;2731;50.754;12.990;2023-08-24T07:36:31;5.75;;;3.72;;
5416;SDS011;2731;50.754;12.990;2023-08-24T07:38:59;4.93;;;3.45;;
5416;SDS011;2731;50.754;12.990;2023-08-24T07:41:26;6.65;;;4.03;;
5416;SDS011;2731;50.754;12.990;2023-08-24T07:43:54;9.00;;;4.30;;
5416;SDS011;2731;50.754;12.990;2023-08-24T07:46:23;4.80;;;3.50;;
5416;SDS011;2731;50.754;12.990;2023-08-24T07:48:52;6.10;;;3.42;;
5416;SDS011;2731;50.754;12.990;2023-08-24T07:51:32;3.47;;;3.17;;
5416;SDS011;2731;50.754;12.990;2023-08-24T07:54:00;7.75;;;3.45;;
5416;SDS011;2731;50.754;12.990;2023-08-24T07:56:28;7.43;;;3.30;;
5416;SDS011;2731;50.754;12.990;2023-08-24T07:58:55;3.45;;;3.13;;
5416;SDS011;2731;50.754;12.990;2023-08-24T08:01:22;5.22;;;3.05;;
5416;SDS011;2731;50.754;12.990;2023-08-24T08:03:50;4.20;;;3.17;;
5416;SDS011;2731;50.754;12.990;2023-08-24T08:06:19;6.15;;;3.00;;
5416;SDS011;2731;50.754;12.990;2023-08-24T08:08:59;5.10;;;2.90;;
5416;SDS011;2731;50.754;12.990;2023-08-24T08:11:31;5.82;;;3.47;;
5416;SDS011;2731;50.754;12.990;2023-08-24T08:14:02;3.72;;;2.80;;
5416;SDS011;2731;50.754;12.990;2023-08-24T08:16:29;3.65;;;3.17;;
5416;SDS011;2731;50.754;12.990;2023-08-24T08:18:58;3.40;;;3.10;;
5416;SDS011;2731;50.754;12.990;2023-08-24T08:21:27;4.60;;;2.97;;
5416;SDS011;2731;50.754;12.990;2023-08-24T08:23:58;3.17;;;2.85;;
5416;SDS011;2731;50.754;12.990;2023-08-24T08:26:26;5.13;;;2.85;;
5416;SDS011;2731;50.754;12.990;2023-08-24T08:28:52;4.25;;;2.90;;
5416;SDS011;2731;50.754;12.990;2023-08-24T08:31:22;5.40;;;3.05;;
5416;SDS011;2731;50.754;12.990;2023-08-24T08:34:03;5.22;;;2.92;;
5416;SDS011;2731;50.754;12.990;2023-08-24T08:36:30;3.97;;;2.95;;
5416;SDS011;2731;50.754;12.990;2023-08-24T08:38:58;3.28;;;2.50;;
5416;SDS011;2731;50.754;12.990;2023-08-24T08:41:27;4.68;;;2.67;;
5416;SDS011;2731;50.754;12.990;2023-08-24T08:44:07;3.97;;;2.92;;
5416;SDS011;2731;50.754;12.990;2023-08-24T08:46:42;8.35;;;3.08;;
5416;SDS011;2731;50.754;12.990;2023-08-24T08:49:15;5.30;;;2.95;;
5416;SDS011;2731;50.754;12.990;2023-08-24T08:51:53;6.20;;;2.72;;
5416;SDS011;2731;50.754;12.990;2023-08-24T08:54:24;9.77;;;3.03;;
5416;SDS011;2731;50.754;12.990;2023-08-24T08:56:51;5.00;;;2.58;;
5416;SDS011;2731;50.754;12.990;2023-08-24T08:59:23;3.38;;;2.67;;
5416;SDS011;2731;50.754;12.990;2023-08-24T09:01:57;4.78;;;2.88;;
5416;SDS011;2731;50.754;12.990;2023-08-24T09:04:31;5.07;;;2.45;;
5416;SDS011;2731;50.754;12.990;2023-08-24T09:07:02;4.47;;;3.20;;
5416;SDS011;2731;50.754;12.990;2023-08-24T09:09:43;6.25;;;2.85;;
5416;SDS011;2731;50.754;12.990;2023-08-24T09:12:11;6.45;;;2.85;;
5416;SDS011;2731;50.754;12.990;2023-08-24T09:14:38;3.95;;;2.90;;
5416;SDS011;2731;50.754;12.990;2023-08-24T09:17:09;3.60;;;2.50;;
5416;SDS011;2731;50.754;12.990;2023-08-24T09:19:36;5.43;;;2.63;;
5416;SDS011;2731;50.754;12.990;2023-08-24T09:22:04;5.28;;;3.22;;
5416;SDS011;2731;50.754;12.990;2023-08-24T09:24:33;3.55;;;2.33;;
5416;SDS011;2731;50.754;12.990;2023-08-24T09:27:21;3.78;;;2.67;;
5416;SDS011;2731;50.754;12.990;2023-08-24T09:32:26;3.80;;;3.05;;
5416;SDS011;2731;50.754;12.990;2023-08-24T09:34:55;6.25;;;2.78;;
5416;SDS011;2731;50.754;12.990;2023-08-24T09:37:35;5.32;;;2.83;;
5416;SDS011;2731;50.754;12.990;2023-08-24T09:40:04;4.93;;;3.17;;
5416;SDS011;2731;50.754;12.990;2023-08-24T09:42:44;3.33;;;2.85;;
5416;SDS011;2731;50.754;12.990;2023-08-24T09:45:11;6.50;;;3.20;;
5416;SDS011;2731;50.754;12.990;2023-08-24T09:47:39;4.25;;;2.65;;
5416;SDS011;2731;50.754;12.990;2023-08-24T09:50:06;5.25;;;2.78;;
5416;SDS011;2731;50.754;12.990;2023-08-24T09:52:35;6.57;;;3.22;;
5416;SDS011;2731;50.754;12.990;2023-08-24T09:55:03;3.75;;;3.15;;
5416;SDS011;2731;50.754;12.990;2023-08-24T09:57:39;4.60;;;2.88;;
5416;SDS011;2731;50.754;12.990;2023-08-24T10:00:08;3.30;;;2.92;;
5416;SDS011;2731;50.754;12.990;2023-08-24T10:02:36;3.88;;;2.60;;
5416;SDS011;2731;50.754;12.990;2023-08-24T10:05:04;3.83;;;3.08;;
5416;SDS011;2731;50.754;12.990;2023-08-24T10:07:38;5.45;;;2.92;;
5416;SDS011;2731;50.754;12.990;2023-08-24T10:10:07;3.70;;;2.67;;
5416;SDS011;2731;50.754;12.990;2023-08-24T10:12:39;5.70;;;3.05;;
5416;SDS011;2731;50.754;12.990;2023-08-24T10:15:11;5.50;;;3.33;;
5416;SDS011;2731;50.754;12.990;2023-08-24T10:17:48;7.68;;;3.35;;
5416;SDS011;2731;50.754;12.990;2023-08-24T10:20:19;6.05;;;3.33;;
5416;SDS011;2731;50.754;12.990;2023-08-24T10:22:47;5.32;;;2.78;;
5416;SDS011;2731;50.754;12.990;2023-08-24T10:25:18;5.80;;;3.25;;
5416;SDS011;2731;50.754;12.990;2023-08-24T10:27:53;4.20;;;2.65;;
5416;SDS011;2731;50.754;12.990;2023-08-24T10:30:23;5.80;;;2.60;;
5416;SDS011;2731;50.754;12.990;2023-08-24T10:33:04;3.83;;;3.00;;
5416;SDS011;2731;50.754;12.990;2023-08-24T10:35:33;4.10;;;2.70;;
5416;SDS011;2731;50.754;12.990;2023-08-24T10:38:01;4.70;;;2.67;;
5416;SDS011;2731;50.754;12.990;2023-08-24T10:40:36;4.70;;;3.25;;
5416;SDS011;2731;50.754;12.990;2023-08-24T10:43:27;5.28;;;3.25;;
5416;SDS011;2731;50.754;12.990;2023-08-24T10:46:00;5.15;;;3.28;;
5416;SDS011;2731;50.754;12.990;2023-08-24T10:48:30;5.15;;;2.88;;
5416;SDS011;2731;50.754;12.990;2023-08-24T10:53:45;5.00;;;3.08;;
5416;SDS011;2731;50.754;12.990;2023-08-24T10:56:17;4.43;;;3.10;;
5416;SDS011;2731;50.754;12.990;2023-08-24T10:58:47;3.08;;;2.72;;
5416;SDS011;2731;50.754;12.990;2023-08-24T11:01:18;4.55;;;2.72;;
5416;SDS011;2731;50.754;12.990;2023-08-24T11:03:50;3.75;;;3.13;;
5416;SDS011;2731;50.754;12.990;2023-08-24T11:06:23;7.93;;;3.28;;
5416;SDS011;2731;50.754;12.990;2023-08-24T11:09:08;4.88;;;3.47;;
5416;SDS011;2731;50.754;12.990;2023-08-24T11:11:42;7.75;;;4.38;;
5416;SDS011;2731;50.754;12.990;2023-08-24T11:14:19;7.50;;;5.00;;
5416;SDS011;2731;50.754;12.990;2023-08-24T11:16:51;5.38;;;3.30;;
5416;SDS011;2731;50.754;12.990;2023-08-24T11:19:18;6.25;;;4.03;;
5416;SDS011;2731;50.754;12.990;2023-08-24T11:21:47;10.77;;;6.25;;
5416;SDS011;2731;50.754;12.990;2023-08-24T11:24:14;7.03;;;4.40;;
5416;SDS011;2731;50.754;12.990;2023-08-24T11:26:48;8.30;;;5.20;;
5416;SDS011;2731;50.754;12.990;2023-08-24T11:29:17;3.88;;;3.22;;
5416;SDS011;2731;50.754;12.990;2023-08-24T11:31:45;4.82;;;3.53;;
5416;SDS011;2731;50.754;12.990;2023-08-24T11:34:18;3.10;;;2.78;;
5416;SDS011;2731;50.754;12.990;2023-08-24T11:36:50;4.22;;;2.78;;
5416;SDS011;2731;50.754;12.990;2023-08-24T11:39:19;4.15;;;3.70;;
5416;SDS011;2731;50.754;12.990;2023-08-24T11:42:07;4.25;;;3.08;;
5416;SDS011;2731;50.754;12.990;2023-08-24T11:44:46;5.35;;;2.80;;
5416;SDS011;2731;50.754;12.990;2023-08-24T11:47:15;3.92;;;2.83;;
5416;SDS011;2731;50.754;12.990;2023-08-24T11:49:42;3.58;;;3.03;;
5416;SDS011;2731;50.754;12.990;2023-08-24T11:52:11;4.15;;;3.75;;
5416;SDS011;2731;50.754;12.990;2023-08-24T11:54:58;4.18;;;3.33;;
5416;SDS011;2731;50.754;12.990;2023-08-24T11:57:29;6.63;;;3.95;;
5416;SDS011;2731;50.754;12.990;2023-08-24T11:59:59;7.55;;;4.10;;
5416;SDS011;2731;50.754;12.990;2023-08-24T12:02:26;7.90;;;4.35;;
5416;SDS011;2731;50.754;12.990;2023-08-24T12:04:55;6.65;;;4.15;;
5416;SDS011;2731;50.754;12.990;2023-08-24T12:07:24;3.67;;;3.15;;
5416;SDS011;2731;50.754;12.990;2023-08-24T12:09:51;10.65;;;3.80;;
5416;SDS011;2731;50.754;12.990;2023-08-24T12:12:20;5.18;;;3.03;;
5416;SDS011;2731;50.754;12.990;2023-08-24T12:14:56;4.97;;;3.35;;
5416;SDS011;2731;50.754;12.990;2023-08-24T12:17:24;5.70;;;3.72;;
5416;SDS011;2731;50.754;12.990;2023-08-24T12:19:58;6.25;;;3.47;;
5416;SDS011;2731;50.754;12.990;2023-08-24T12:22:33;8.25;;;4.00;;
5416;SDS011;2731;50.754;12.990;2023-08-24T12:25:04;6.95;;;3.85;;
5416;SDS011;2731;50.754;12.990;2023-08-24T12:27:31;3.42;;;2.90;;
5416;SDS011;2731;50.754;12.990;2023-08-24T12:30:04;6.35;;;3.40;;
5416;SDS011;2731;50.754;12.990;2023-08-24T12:32:45;8.25;;;3.40;;
5416;SDS011;2731;50.754;12.990;2023-08-24T12:35:11;5.20;;;3.05;;
5416;SDS011;2731;50.754;12.990;2023-08-24T12:37:40;5.55;;;3.42;;
5416;SDS011;2731;50.754;12.990;2023-08-24T12:40:08;4.13;;;2.85;;
5416;SDS011;2731;50.754;12.990;2023-08-24T12:42:58;5.35;;;2.80;;
5416;SDS011;2731;50.754;12.990;2023-08-24T12:45:28;3.97;;;3.33;;
5416;SDS011;2731;50.754;12.990;2023-08-24T12:47:58;4.20;;;3.20;;
5416;SDS011;2731;50.754;12.990;2023-08-24T12:50:24;4.32;;;3.10;;
5416;SDS011;2731;50.754;12.990;2023-08-24T12:52:54;5.35;;;3.58;;
5416;SDS011;2731;50.754;12.990;2023-08-24T12:55:28;3.85;;;2.97;;
5416;SDS011;2731;50.754;12.990;2023-08-24T12:57:56;4.72;;;3.13;;
5416;SDS011;2731;50.754;12.990;2023-08-24T13:00:24;6.10;;;3.20;;
5416;SDS011;2731;50.754;12.990;2023-08-24T13:02:56;3.60;;;2.72;;
5416;SDS011;2731;50.754;12.990;2023-08-24T13:05:24;6.18;;;3.22;;
5416;SDS011;2731;50.754;12.990;2023-08-24T13:07:52;4.97;;;2.95;;
5416;SDS011;2731;50.754;12.990;2023-08-24T13:10:20;6.78;;;3.13;;
5416;SDS011;2731;50.754;12.990;2023-08-24T13:12:48;7.82;;;3.33;;
5416;SDS011;2731;50.754;12.990;2023-08-24T13:15:15;4.40;;;2.75;;
5416;SDS011;2731;50.754;12.990;2023-08-24T13:17:42;6.63;;;3.28;;
5416;SDS011;2731;50.754;12.990;2023-08-24T13:20:11;4.72;;;2.60;;
5416;SDS011;2731;50.754;12.990;2023-08-24T13:22:39;5.28;;;3.00;;
5416;SDS011;2731;50.754;12.990;2023-08-24T13:25:07;6.78;;;3.08;;
5416;SDS011;2731;50.754;12.990;2023-08-24T13:27:35;4.25;;;2.92;;
5416;SDS011;2731;50.754;12.990;2023-08-24T13:30:04;3.50;;;2.90;;
5416;SDS011;2731;50.754;12.990;2023-08-24T13:35:04;2.97;;;2.67;;
5416;SDS011;2731;50.754;12.990;2023-08-24T13:37:30;4.03;;;2.78;;
5416;SDS011;2731;50.754;12.990;2023-08-24T13:39:58;3.83;;;2.83;;
5416;SDS011;2731;50.754;12.990;2023-08-24T13:42:26;4.38;;;2.78;;
5416;SDS011;2731;50.754;12.990;2023-08-24T13:44:53;3.78;;;2.42;;
5416;SDS011;2731;50.754;12.990;2023-08-24T13:47:24;5.85;;;2.60;;
5416;SDS011;2731;50.754;12.990;2023-08-24T13:49:54;5.63;;;2.58;;
5416;SDS011;2731;50.754;12.990;2023-08-24T13:52:24;4.78;;;2.78;;
5416;SDS011;2731;50.754;12.990;2023-08-24T13:54:55;4.57;;;2.75;;
5416;SDS011;2731;50.754;12.990;2023-08-24T13:57:27;6.15;;;3.22;;
5416;SDS011;2731;50.754;12.990;2023-08-24T13:59:56;3.13;;;2.42;;
5416;SDS011;2731;50.754;12.990;2023-08-24T14:02:26;4.03;;;2.80;;
5416;SDS011;2731;50.754;12.990;2023-08-24T14:04:53;4.53;;;2.80;;
5416;SDS011;2731;50.754;12.990;2023-08-24T14:07:20;3.28;;;2.53;;
5416;SDS011;2731;50.754;12.990;2023-08-24T14:09:51;4.88;;;2.70;;
5416;SDS011;2731;50.754;12.990;2023-08-24T14:12:18;4.38;;;2.28;;
5416;SDS011;2731;50.754;12.990;2023-08-24T14:14:46;4.70;;;2.58;;
5416;SDS011;2731;50.754;12.990;2023-08-24T14:17:12;3.95;;;2.45;;
5416;SDS011;2731;50.754;12.990;2023-08-24T14:19:40;5.57;;;2.53;;
5416;SDS011;2731;50.754;12.990;2023-08-24T14:22:07;4.30;;;2.40;;
5416;SDS011;2731;50.754;12.990;2023-08-24T14:24:36;7.35;;;2.25;;
5416;SDS011;2731;50.754;12.990;2023-08-24T14:27:03;3.65;;;2.70;;
5416;SDS011;2731;50.754;12.990;2023-08-24T14:29:31;2.95;;;2.42;;
5416;SDS011;2731;50.754;12.990;2023-08-24T14:31:58;5.78;;;2.75;;
5416;SDS011;2731;50.754;12.990;2023-08-24T14:34:28;4.90;;;2.97;;
5416;SDS011;2731;50.754;12.990;2023-08-24T14:36:55;2.63;;;2.30;;
5416;SDS011;2731;50.754;12.990;2023-08-24T14:39:24;3.67;;;2.05;;
5416;SDS011;2731;50.754;12.990;2023-08-24T14:41:51;5.15;;;2.90;;
5416;SDS011;2731;50.754;12.990;2023-08-24T14:44:19;4.60;;;2.55;;
5416;SDS011;2731;50.754;12.990;2023-08-24T14:46:46;5.80;;;2.63;;
5416;SDS011;2731;50.754;12.990;2023-08-24T14:49:14;4.45;;;2.38;;
5416;SDS011;2731;50.754;12.990;2023-08-24T14:51:46;3.95;;;2.47;;
5416;SDS011;2731;50.754;12.990;2023-08-24T14:54:15;5.43;;;2.72;;
5416;SDS011;2731;50.754;12.990;2023-08-24T14:56:43;5.75;;;2.67;;
5416;SDS011;2731;50.754;12.990;2023-08-24T14:59:10;4.03;;;2.85;;
5416;SDS011;2731;50.754;12.990;2023-08-24T15:01:38;5.18;;;2.88;;
5416;SDS011;2731;50.754;12.990;2023-08-24T15:04:07;5.13;;;2.30;;
5416;SDS011;2731;50.754;12.990;2023-08-24T15:06:36;4.30;;;3.00;;
5416;SDS011;2731;50.754;12.990;2023-08-24T15:09:03;4.60;;;2.42;;
5416;SDS011;2731;50.754;12.990;2023-08-24T15:11:33;8.57;;;2.40;;
5416;SDS011;2731;50.754;12.990;2023-08-24T15:14:00;5.20;;;2.78;;
5416;SDS011;2731;50.754;12.990;2023-08-24T15:16:27;3.75;;;2.58;;
5416;SDS011;2731;50.754;12.990;2023-08-24T15:18:55;3.72;;;2.45;;
5416;SDS011;2731;50.754;12.990;2023-08-24T15:21:22;11.05;;;2.53;;
5416;SDS011;2731;50.754;12.990;2023-08-24T15:23:49;3.33;;;2.20;;
5416;SDS011;2731;50.754;12.990;2023-08-24T15:26:16;6.75;;;3.17;;
5416;SDS011;2731;50.754;12.990;2023-08-24T15:31:29;3.42;;;2.80;;